Ana Sayfa
METAR-TAF:

METAR-TAF

Havaalanları :

Fort Huachuca / Sierra Vista, Arizona, Amerika Birleşik Devletleri

Enlem: 31-35N, Boylam: 110-20W, yükseklik: 1438 m

Güncel hava durumu gözlemi

Rapor saat 04:58 UTC de 1 saat ve 14 dakika önce yapıldı.
Sakin rüzgar
Sıcaklık 7°C
Nem 53%
Basınç 1022 hPa
Görüş mesafesi: 16.1 km
Açık gökyüzü

METAR: KFHU 280458Z AUTO 00000KT 10SM CLR 07/M02 A3019 RMK AO2 SLP194 T00701022

Saat: 23:12 (06:12 UTC)

Tahmin

Rapor saat 02:00 UTC de 4 saat ve 12 dakika önce yapıldı.
Ayın 28'si saat 02 UTC'den ayın 29'si saat 08 UTC'ye kadar geçerli Tahmin
Rüzgar değişken yönden 6 kt
Görüş mesafesi 10 km veya daha fazla
Açık gökyüzü

TAF: KFHU 280200Z 2802/2908 VRB06KT 9999 SKC 520052 QNH3006INS TX15/2823Z TN00/2814Z

4.000'den fazla havaalanı için hava durumu gözlemleri ve tahminleri (METAR ve TAF raporları).

Kullanılabilir istasyonlar harita üzerinde sarı ve kırmızı noktalarla gösterilir.

İstasyonun adını görmek için fareyi noktanın üzerinde gezdirin.

Sonrasında hava gözlem ve tahminlerini görmek için tıklayın.

Haritayı değiştirmek için: yaklaştırmak için siyah artı işaretli yeşil düğmeye ve uzaklaştırmak için de eksi işaretli düğmeye hızla tıklayın; bitişik haritalar için yeşil okları kullanın.


METAR-TAF: